sensor_id;sensor_type;location;lat;lon;timestamp;temperature;humidity
76996;DHT22;65929;49.062;10.338;2023-01-19T00:00:57;-4.10;94.60
76996;DHT22;65929;49.062;10.338;2023-01-19T00:01:58;-4.10;94.60
76996;DHT22;65929;49.062;10.338;2023-01-19T00:02:59;-4.10;94.60
76996;DHT22;65929;49.062;10.338;2023-01-19T00:04:00;-4.20;94.60
76996;DHT22;65929;49.062;10.338;2023-01-19T00:05:01;-4.20;94.60
76996;DHT22;65929;49.062;10.338;2023-01-19T00:06:04;-4.20;94.50
76996;DHT22;65929;49.062;10.338;2023-01-19T00:07:05;-4.20;94.50
76996;DHT22;65929;49.062;10.338;2023-01-19T00:08:06;-4.30;94.40
76996;DHT22;65929;49.062;10.338;2023-01-19T00:09:17;-4.30;94.40
76996;DHT22;65929;49.062;10.338;2023-01-19T00:10:18;-4.40;94.40
76996;DHT22;65929;49.062;10.338;2023-01-19T00:11:20;-4.50;94.40
76996;DHT22;65929;49.062;10.338;2023-01-19T00:12:21;-4.60;94.30
76996;DHT22;65929;49.062;10.338;2023-01-19T00:13:22;-4.60;94.30
76996;DHT22;65929;49.062;10.338;2023-01-19T00:14:23;-4.60;94.40
76996;DHT22;65929;49.062;10.338;2023-01-19T00:15:24;-4.60;94.40
76996;DHT22;65929;49.062;10.338;2023-01-19T00:16:25;-4.60;94.30
76996;DHT22;65929;49.062;10.338;2023-01-19T00:17:25;-4.60;94.30
76996;DHT22;65929;49.062;10.338;2023-01-19T00:18:26;-4.70;94.30
76996;DHT22;65929;49.062;10.338;2023-01-19T00:19:27;-4.80;94.30
76996;DHT22;65929;49.062;10.338;2023-01-19T00:20:28;-4.80;94.30
76996;DHT22;65929;49.062;10.338;2023-01-19T00:21:31;-4.80;94.40
76996;DHT22;65929;49.062;10.338;2023-01-19T00:22:32;-4.80;94.50
76996;DHT22;65929;49.062;10.338;2023-01-19T00:23:33;-4.80;94.50
76996;DHT22;65929;49.062;10.338;2023-01-19T00:24:34;-4.80;94.60
76996;DHT22;65929;49.062;10.338;2023-01-19T00:25:35;-4.80;94.70
76996;DHT22;65929;49.062;10.338;2023-01-19T00:26:43;-4.80;94.70
76996;DHT22;65929;49.062;10.338;2023-01-19T00:27:44;-4.80;94.80
76996;DHT22;65929;49.062;10.338;2023-01-19T00:28:49;-4.70;94.90
76996;DHT22;65929;49.062;10.338;2023-01-19T00:29:50;-4.80;94.90
76996;DHT22;65929;49.062;10.338;2023-01-19T00:30:51;-4.80;94.90
76996;DHT22;65929;49.062;10.338;2023-01-19T00:31:52;-4.80;94.90
76996;DHT22;65929;49.062;10.338;2023-01-19T00:32:53;-4.90;94.90
76996;DHT22;65929;49.062;10.338;2023-01-19T00:33:53;-4.90;94.90
76996;DHT22;65929;49.062;10.338;2023-01-19T00:34:54;-4.90;95.00
76996;DHT22;65929;49.062;10.338;2023-01-19T00:35:55;-4.80;95.00
76996;DHT22;65929;49.062;10.338;2023-01-19T00:36:56;-4.90;95.00
76996;DHT22;65929;49.062;10.338;2023-01-19T00:37:58;-4.90;95.00
76996;DHT22;65929;49.062;10.338;2023-01-19T00:38:59;-4.90;95.10
76996;DHT22;65929;49.062;10.338;2023-01-19T00:40:00;-4.90;95.10
76996;DHT22;65929;49.062;10.338;2023-01-19T00:41:01;-4.90;95.10
76996;DHT22;65929;49.062;10.338;2023-01-19T00:42:03;-4.90;95.10
76996;DHT22;65929;49.062;10.338;2023-01-19T00:43:23;-4.90;95.10
76996;DHT22;65929;49.062;10.338;2023-01-19T00:44:24;-5.00;95.10
76996;DHT22;65929;49.062;10.338;2023-01-19T00:45:25;-5.00;95.10
76996;DHT22;65929;49.062;10.338;2023-01-19T00:46:32;-5.00;95.10
76996;DHT22;65929;49.062;10.338;2023-01-19T00:47:33;-5.00;95.10
76996;DHT22;65929;49.062;10.338;2023-01-19T00:48:33;-5.00;95.10
76996;DHT22;65929;49.062;10.338;2023-01-19T00:49:34;-5.10;95.10
76996;DHT22;65929;49.062;10.338;2023-01-19T00:50:35;-5.10;95.10
76996;DHT22;65929;49.062;10.338;2023-01-19T00:51:36;-5.10;95.00
76996;DHT22;65929;49.062;10.338;2023-01-19T00:52:38;-5.20;95.10
76996;DHT22;65929;49.062;10.338;2023-01-19T00:53:39;-5.20;95.00
76996;DHT22;65929;49.062;10.338;2023-01-19T00:54:40;-5.10;95.10
76996;DHT22;65929;49.062;10.338;2023-01-19T00:55:41;-5.10;95.20
76996;DHT22;65929;49.062;10.338;2023-01-19T00:56:42;-5.10;95.20
76996;DHT22;65929;49.062;10.338;2023-01-19T00:57:44;-5.00;95.40
76996;DHT22;65929;49.062;10.338;2023-01-19T00:58:45;-5.00;95.50
76996;DHT22;65929;49.062;10.338;2023-01-19T00:59:46;-5.00;95.40
76996;DHT22;65929;49.062;10.338;2023-01-19T01:00:47;-5.00;95.40
76996;DHT22;65929;49.062;10.338;2023-01-19T01:01:48;-5.00;95.50
76996;DHT22;65929;49.062;10.338;2023-01-19T01:02:50;-5.00;95.50
76996;DHT22;65929;49.062;10.338;2023-01-19T01:03:52;-5.00;95.50
76996;DHT22;65929;49.062;10.338;2023-01-19T01:04:53;-5.10;95.60
76996;DHT22;65929;49.062;10.338;2023-01-19T01:05:54;-5.10;95.60
76996;DHT22;65929;49.062;10.338;2023-01-19T01:06:55;-5.00;95.60
76996;DHT22;65929;49.062;10.338;2023-01-19T01:07:56;-5.00;95.70
76996;DHT22;65929;49.062;10.338;2023-01-19T01:08:57;-5.00;95.70
76996;DHT22;65929;49.062;10.338;2023-01-19T01:09:58;-5.00;95.70
76996;DHT22;65929;49.062;10.338;2023-01-19T01:10:59;-5.00;95.70
76996;DHT22;65929;49.062;10.338;2023-01-19T01:12:00;-5.00;95.70
76996;DHT22;65929;49.062;10.338;2023-01-19T01:13:02;-5.10;95.80
76996;DHT22;65929;49.062;10.338;2023-01-19T01:14:03;-5.10;95.80
76996;DHT22;65929;49.062;10.338;2023-01-19T01:15:06;-5.10;95.80
76996;DHT22;65929;49.062;10.338;2023-01-19T01:16:07;-5.10;95.80
76996;DHT22;65929;49.062;10.338;2023-01-19T01:17:12;-5.10;95.90
76996;DHT22;65929;49.062;10.338;2023-01-19T01:18:13;-5.10;95.90
76996;DHT22;65929;49.062;10.338;2023-01-19T01:19:15;-5.10;95.80
76996;DHT22;65929;49.062;10.338;2023-01-19T01:20:17;-5.20;95.80
76996;DHT22;65929;49.062;10.338;2023-01-19T01:21:18;-5.20;95.80
76996;DHT22;65929;49.062;10.338;2023-01-19T01:22:19;-5.20;95.80
76996;DHT22;65929;49.062;10.338;2023-01-19T01:23:20;-5.30;95.80
76996;DHT22;65929;49.062;10.338;2023-01-19T01:24:22;-5.40;95.80
76996;DHT22;65929;49.062;10.338;2023-01-19T01:25:25;-5.40;95.80
76996;DHT22;65929;49.062;10.338;2023-01-19T01:26:26;-5.40;95.80
76996;DHT22;65929;49.062;10.338;2023-01-19T01:27:27;-5.40;95.80
76996;DHT22;65929;49.062;10.338;2023-01-19T01:28:29;-5.40;95.90
76996;DHT22;65929;49.062;10.338;2023-01-19T01:29:31;-5.30;95.90
76996;DHT22;65929;49.062;10.338;2023-01-19T01:30:35;-5.20;96.00
76996;DHT22;65929;49.062;10.338;2023-01-19T01:31:39;-5.20;96.00
76996;DHT22;65929;49.062;10.338;2023-01-19T01:32:40;-5.20;96.00
76996;DHT22;65929;49.062;10.338;2023-01-19T01:33:42;-5.20;96.00
76996;DHT22;65929;49.062;10.338;2023-01-19T01:34:43;-5.20;96.00
76996;DHT22;65929;49.062;10.338;2023-01-19T01:35:44;-5.20;96.00
76996;DHT22;65929;49.062;10.338;2023-01-19T01:36:45;-5.20;96.00
76996;DHT22;65929;49.062;10.338;2023-01-19T01:37:46;-5.20;96.00
76996;DHT22;65929;49.062;10.338;2023-01-19T01:38:47;-5.20;96.00
76996;DHT22;65929;49.062;10.338;2023-01-19T01:39:48;-5.20;96.10
76996;DHT22;65929;49.062;10.338;2023-01-19T01:40:48;-5.20;96.00
76996;DHT22;65929;49.062;10.338;2023-01-19T01:41:49;-5.20;96.10
76996;DHT22;65929;49.062;10.338;2023-01-19T01:42:50;-5.20;96.10
76996;DHT22;65929;49.062;10.338;2023-01-19T01:43:54;-5.20;96.10
76996;DHT22;65929;49.062;10.338;2023-01-19T01:45:03;-5.20;96.10
76996;DHT22;65929;49.062;10.338;2023-01-19T01:46:05;-5.20;96.10
76996;DHT22;65929;49.062;10.338;2023-01-19T01:47:07;-5.20;96.10
76996;DHT22;65929;49.062;10.338;2023-01-19T01:48:11;-5.30;96.10
76996;DHT22;65929;49.062;10.338;2023-01-19T01:49:14;-5.30;96.10
76996;DHT22;65929;49.062;10.338;2023-01-19T01:50:18;-5.40;96.00
76996;DHT22;65929;49.062;10.338;2023-01-19T01:51:24;-5.40;96.00
76996;DHT22;65929;49.062;10.338;2023-01-19T01:52:26;-5.50;96.00
76996;DHT22;65929;49.062;10.338;2023-01-19T01:53:30;-5.50;96.00
76996;DHT22;65929;49.062;10.338;2023-01-19T01:54:32;-5.50;96.00
76996;DHT22;65929;49.062;10.338;2023-01-19T01:55:35;-5.50;96.00
76996;DHT22;65929;49.062;10.338;2023-01-19T01:56:40;-5.60;95.90
76996;DHT22;65929;49.062;10.338;2023-01-19T01:57:49;-5.50;95.90
76996;DHT22;65929;49.062;10.338;2023-01-19T01:58:51;-5.50;95.90
76996;DHT22;65929;49.062;10.338;2023-01-19T01:59:54;-5.50;95.90
76996;DHT22;65929;49.062;10.338;2023-01-19T02:00:56;-5.40;95.80
76996;DHT22;65929;49.062;10.338;2023-01-19T02:02:18;-5.50;95.80
76996;DHT22;65929;49.062;10.338;2023-01-19T02:03:37;-5.50;95.70
76996;DHT22;65929;49.062;10.338;2023-01-19T02:04:39;-5.60;95.70
76996;DHT22;65929;49.062;10.338;2023-01-19T02:05:43;-5.60;95.70
76996;DHT22;65929;49.062;10.338;2023-01-19T02:06:46;-5.60;95.60
76996;DHT22;65929;49.062;10.338;2023-01-19T02:08:08;-5.60;95.60
76996;DHT22;65929;49.062;10.338;2023-01-19T02:09:32;-5.60;95.60
76996;DHT22;65929;49.062;10.338;2023-01-19T02:10:53;-5.60;95.60
76996;DHT22;65929;49.062;10.338;2023-01-19T02:12:13;-5.60;95.50
76996;DHT22;65929;49.062;10.338;2023-01-19T02:13:34;-5.80;95.50
76996;DHT22;65929;49.062;10.338;2023-01-19T02:14:36;-5.80;95.40
76996;DHT22;65929;49.062;10.338;2023-01-19T02:15:38;-5.80;95.40
76996;DHT22;65929;49.062;10.338;2023-01-19T02:16:39;-5.80;95.40
76996;DHT22;65929;49.062;10.338;2023-01-19T02:18:04;-6.00;95.40
76996;DHT22;65929;49.062;10.338;2023-01-19T02:19:07;-6.00;95.40
76996;DHT22;65929;49.062;10.338;2023-01-19T02:20:12;-6.00;95.30
76996;DHT22;65929;49.062;10.338;2023-01-19T02:21:18;-6.00;95.30
76996;DHT22;65929;49.062;10.338;2023-01-19T02:22:23;-6.10;95.30
76996;DHT22;65929;49.062;10.338;2023-01-19T02:23:36;-6.10;95.30
76996;DHT22;65929;49.062;10.338;2023-01-19T02:24:40;-6.10;95.30
76996;DHT22;65929;49.062;10.338;2023-01-19T02:25:42;-6.10;95.40
76996;DHT22;65929;49.062;10.338;2023-01-19T02:26:45;-6.10;95.40
76996;DHT22;65929;49.062;10.338;2023-01-19T02:27:47;-6.10;95.50
76996;DHT22;65929;49.062;10.338;2023-01-19T02:28:53;-6.10;95.50
76996;DHT22;65929;49.062;10.338;2023-01-19T02:29:57;-6.10;95.50
76996;DHT22;65929;49.062;10.338;2023-01-19T02:30:59;-6.20;95.50
76996;DHT22;65929;49.062;10.338;2023-01-19T02:32:00;-6.20;95.50
76996;DHT22;65929;49.062;10.338;2023-01-19T02:33:02;-6.10;95.50
76996;DHT22;65929;49.062;10.338;2023-01-19T02:34:05;-6.10;95.50
76996;DHT22;65929;49.062;10.338;2023-01-19T02:35:15;-6.10;95.50
76996;DHT22;65929;49.062;10.338;2023-01-19T02:36:27;-6.20;95.50
76996;DHT22;65929;49.062;10.338;2023-01-19T02:37:31;-6.20;95.50
76996;DHT22;65929;49.062;10.338;2023-01-19T02:38:36;-6.30;95.40
76996;DHT22;65929;49.062;10.338;2023-01-19T02:39:44;-6.30;95.40
76996;DHT22;65929;49.062;10.338;2023-01-19T02:40:54;-6.30;95.40
76996;DHT22;65929;49.062;10.338;2023-01-19T02:42:01;-6.30;95.30
76996;DHT22;65929;49.062;10.338;2023-01-19T02:43:05;-6.40;95.30
76996;DHT22;65929;49.062;10.338;2023-01-19T02:44:12;-6.40;95.30
76996;DHT22;65929;49.062;10.338;2023-01-19T02:45:26;-6.40;95.30
76996;DHT22;65929;49.062;10.338;2023-01-19T02:46:30;-6.40;95.30
76996;DHT22;65929;49.062;10.338;2023-01-19T02:47:39;-6.40;95.30
76996;DHT22;65929;49.062;10.338;2023-01-19T02:48:40;-6.40;95.30
76996;DHT22;65929;49.062;10.338;2023-01-19T02:49:42;-6.40;95.30
76996;DHT22;65929;49.062;10.338;2023-01-19T02:50:43;-6.40;95.30
76996;DHT22;65929;49.062;10.338;2023-01-19T02:51:50;-6.40;95.30
76996;DHT22;65929;49.062;10.338;2023-01-19T02:52:53;-6.40;95.40
76996;DHT22;65929;49.062;10.338;2023-01-19T02:54:28;-6.30;95.40
76996;DHT22;65929;49.062;10.338;2023-01-19T02:55:34;-6.30;95.50
76996;DHT22;65929;49.062;10.338;2023-01-19T02:56:56;-6.30;95.50
76996;DHT22;65929;49.062;10.338;2023-01-19T02:58:10;-6.30;95.50
76996;DHT22;65929;49.062;10.338;2023-01-19T02:59:21;-6.20;95.70
76996;DHT22;65929;49.062;10.338;2023-01-19T03:00:35;-6.10;95.70
76996;DHT22;65929;49.062;10.338;2023-01-19T03:01:47;-6.10;95.70
76996;DHT22;65929;49.062;10.338;2023-01-19T03:03:29;-6.10;95.70
76996;DHT22;65929;49.062;10.338;2023-01-19T03:04:43;-6.10;95.70
76996;DHT22;65929;49.062;10.338;2023-01-19T03:06:02;-6.10;95.80
76996;DHT22;65929;49.062;10.338;2023-01-19T03:07:13;-6.00;95.80
76996;DHT22;65929;49.062;10.338;2023-01-19T03:08:28;-6.00;95.80
76996;DHT22;65929;49.062;10.338;2023-01-19T03:09:47;-6.00;95.80
76996;DHT22;65929;49.062;10.338;2023-01-19T03:10:53;-6.00;95.80
76996;DHT22;65929;49.062;10.338;2023-01-19T03:13:28;-6.00;95.90
76996;DHT22;65929;49.062;10.338;2023-01-19T03:15:58;-6.00;95.90
76996;DHT22;65929;49.062;10.338;2023-01-19T03:17:07;-6.00;95.80
76996;DHT22;65929;49.062;10.338;2023-01-19T03:18:13;-6.00;95.80
76996;DHT22;65929;49.062;10.338;2023-01-19T03:19:22;-6.00;95.80
76996;DHT22;65929;49.062;10.338;2023-01-19T03:20:37;-6.00;95.80
76996;DHT22;65929;49.062;10.338;2023-01-19T03:23:16;-6.10;95.70
76996;DHT22;65929;49.062;10.338;2023-01-19T03:24:49;-6.10;95.70
76996;DHT22;65929;49.062;10.338;2023-01-19T03:25:52;-6.20;95.70
76996;DHT22;65929;49.062;10.338;2023-01-19T03:26:58;-6.20;95.70
76996;DHT22;65929;49.062;10.338;2023-01-19T03:28:01;-6.20;95.70
76996;DHT22;65929;49.062;10.338;2023-01-19T03:29:05;-6.20;95.60
76996;DHT22;65929;49.062;10.338;2023-01-19T03:30:11;-6.20;95.60
76996;DHT22;65929;49.062;10.338;2023-01-19T03:31:15;-6.30;95.60
76996;DHT22;65929;49.062;10.338;2023-01-19T03:32:19;-6.30;95.60
76996;DHT22;65929;49.062;10.338;2023-01-19T03:33:24;-6.40;95.60
76996;DHT22;65929;49.062;10.338;2023-01-19T03:34:28;-6.40;95.60
76996;DHT22;65929;49.062;10.338;2023-01-19T03:35:31;-6.40;95.60
76996;DHT22;65929;49.062;10.338;2023-01-19T03:36:35;-6.40;95.70
76996;DHT22;65929;49.062;10.338;2023-01-19T03:37:39;-6.40;95.70
76996;DHT22;65929;49.062;10.338;2023-01-19T03:38:42;-6.30;95.70
76996;DHT22;65929;49.062;10.338;2023-01-19T03:39:45;-6.30;95.80
76996;DHT22;65929;49.062;10.338;2023-01-19T03:40:48;-6.30;95.80
76996;DHT22;65929;49.062;10.338;2023-01-19T03:41:52;-6.20;95.80
76996;DHT22;65929;49.062;10.338;2023-01-19T03:42:54;-6.20;95.80
76996;DHT22;65929;49.062;10.338;2023-01-19T03:43:57;-6.20;95.90
76996;DHT22;65929;49.062;10.338;2023-01-19T03:44:59;-6.10;95.90
76996;DHT22;65929;49.062;10.338;2023-01-19T03:46:02;-6.10;96.00
76996;DHT22;65929;49.062;10.338;2023-01-19T03:47:05;-6.00;96.00
76996;DHT22;65929;49.062;10.338;2023-01-19T03:48:08;-6.00;96.00
76996;DHT22;65929;49.062;10.338;2023-01-19T03:49:09;-5.90;96.00
76996;DHT22;65929;49.062;10.338;2023-01-19T03:50:15;-5.80;96.00
76996;DHT22;65929;49.062;10.338;2023-01-19T03:51:20;-5.80;96.00
76996;DHT22;65929;49.062;10.338;2023-01-19T03:52:28;-5.80;96.00
76996;DHT22;65929;49.062;10.338;2023-01-19T03:53:29;-5.80;96.00
76996;DHT22;65929;49.062;10.338;2023-01-19T03:54:31;-5.70;96.10
76996;DHT22;65929;49.062;10.338;2023-01-19T03:55:32;-5.70;96.10
76996;DHT22;65929;49.062;10.338;2023-01-19T03:56:35;-5.70;96.10
76996;DHT22;65929;49.062;10.338;2023-01-19T03:57:36;-5.60;96.10
76996;DHT22;65929;49.062;10.338;2023-01-19T03:58:37;-5.60;96.10
76996;DHT22;65929;49.062;10.338;2023-01-19T03:59:38;-5.60;96.10
76996;DHT22;65929;49.062;10.338;2023-01-19T04:00:39;-5.60;96.10
76996;DHT22;65929;49.062;10.338;2023-01-19T04:01:40;-5.60;96.20
76996;DHT22;65929;49.062;10.338;2023-01-19T04:02:41;-5.60;96.20
76996;DHT22;65929;49.062;10.338;2023-01-19T04:03:51;-5.50;96.10
76996;DHT22;65929;49.062;10.338;2023-01-19T04:05:04;-5.50;96.10
76996;DHT22;65929;49.062;10.338;2023-01-19T04:06:11;-5.50;96.10
76996;DHT22;65929;49.062;10.338;2023-01-19T04:07:18;-5.50;96.00
76996;DHT22;65929;49.062;10.338;2023-01-19T04:08:19;-5.50;96.00
76996;DHT22;65929;49.062;10.338;2023-01-19T04:09:55;-5.40;96.00
76996;DHT22;65929;49.062;10.338;2023-01-19T04:11:45;-5.50;95.90
76996;DHT22;65929;49.062;10.338;2023-01-19T04:12:38;-5.40;95.90
76996;DHT22;65929;49.062;10.338;2023-01-19T04:13:42;-5.40;95.80
76996;DHT22;65929;49.062;10.338;2023-01-19T04:14:43;-5.40;95.80
76996;DHT22;65929;49.062;10.338;2023-01-19T04:15:44;-5.40;95.80
76996;DHT22;65929;49.062;10.338;2023-01-19T04:17:12;-5.40;95.70
76996;DHT22;65929;49.062;10.338;2023-01-19T04:18:28;-5.40;95.70
76996;DHT22;65929;49.062;10.338;2023-01-19T04:20:54;-5.40;95.60
76996;DHT22;65929;49.062;10.338;2023-01-19T04:21:03;-5.40;95.50
76996;DHT22;65929;49.062;10.338;2023-01-19T04:26:00;-5.20;95.40
76996;DHT22;65929;49.062;10.338;2023-01-19T04:27:02;-5.20;95.50
76996;DHT22;65929;49.062;10.338;2023-01-19T04:28:05;-5.20;95.40
76996;DHT22;65929;49.062;10.338;2023-01-19T04:29:06;-5.20;95.40
76996;DHT22;65929;49.062;10.338;2023-01-19T04:30:07;-5.10;95.40
76996;DHT22;65929;49.062;10.338;2023-01-19T04:31:09;-5.10;95.30
76996;DHT22;65929;49.062;10.338;2023-01-19T04:32:12;-5.10;95.20
76996;DHT22;65929;49.062;10.338;2023-01-19T04:33:13;-5.10;95.20
76996;DHT22;65929;49.062;10.338;2023-01-19T04:34:14;-5.10;95.10
76996;DHT22;65929;49.062;10.338;2023-01-19T04:35:15;-5.10;95.00
76996;DHT22;65929;49.062;10.338;2023-01-19T04:36:16;-5.10;94.90
76996;DHT22;65929;49.062;10.338;2023-01-19T04:37:17;-5.10;94.90
76996;DHT22;65929;49.062;10.338;2023-01-19T04:38:19;-5.10;94.70
76996;DHT22;65929;49.062;10.338;2023-01-19T04:39:20;-5.20;94.70
76996;DHT22;65929;49.062;10.338;2023-01-19T04:40:22;-5.10;94.60
76996;DHT22;65929;49.062;10.338;2023-01-19T04:41:23;-5.10;94.60
76996;DHT22;65929;49.062;10.338;2023-01-19T04:42:24;-5.10;94.60
76996;DHT22;65929;49.062;10.338;2023-01-19T04:43:28;-5.10;94.50
76996;DHT22;65929;49.062;10.338;2023-01-19T04:44:29;-5.20;94.50
76996;DHT22;65929;49.062;10.338;2023-01-19T04:45:30;-5.10;94.50
76996;DHT22;65929;49.062;10.338;2023-01-19T04:46:31;-5.10;94.50
76996;DHT22;65929;49.062;10.338;2023-01-19T04:47:32;-5.10;94.50
76996;DHT22;65929;49.062;10.338;2023-01-19T04:48:33;-5.10;94.50
76996;DHT22;65929;49.062;10.338;2023-01-19T04:49:34;-5.10;94.50
76996;DHT22;65929;49.062;10.338;2023-01-19T04:50:38;-5.20;94.50
76996;DHT22;65929;49.062;10.338;2023-01-19T04:51:40;-5.10;94.60
76996;DHT22;65929;49.062;10.338;2023-01-19T04:52:41;-5.10;94.50
76996;DHT22;65929;49.062;10.338;2023-01-19T04:53:41;-5.10;94.50
76996;DHT22;65929;49.062;10.338;2023-01-19T04:54:42;-5.10;94.60
76996;DHT22;65929;49.062;10.338;2023-01-19T04:55:43;-5.10;94.50
76996;DHT22;65929;49.062;10.338;2023-01-19T04:56:44;-5.00;94.60
76996;DHT22;65929;49.062;10.338;2023-01-19T04:57:46;-5.00;94.60
76996;DHT22;65929;49.062;10.338;2023-01-19T04:58:48;-4.90;94.60
76996;DHT22;65929;49.062;10.338;2023-01-19T04:59:49;-4.90;94.60
76996;DHT22;65929;49.062;10.338;2023-01-19T05:00:50;-4.80;94.50
76996;DHT22;65929;49.062;10.338;2023-01-19T05:01:52;-4.80;94.50
76996;DHT22;65929;49.062;10.338;2023-01-19T05:02:53;-4.70;94.40
76996;DHT22;65929;49.062;10.338;2023-01-19T05:03:54;-4.60;94.30
76996;DHT22;65929;49.062;10.338;2023-01-19T05:04:57;-4.60;94.20
76996;DHT22;65929;49.062;10.338;2023-01-19T05:05:58;-4.60;94.10
76996;DHT22;65929;49.062;10.338;2023-01-19T05:06:59;-4.60;94.00
76996;DHT22;65929;49.062;10.338;2023-01-19T05:08:00;-4.60;93.90
76996;DHT22;65929;49.062;10.338;2023-01-19T05:09:01;-4.60;93.70
76996;DHT22;65929;49.062;10.338;2023-01-19T05:10:02;-4.60;93.60
76996;DHT22;65929;49.062;10.338;2023-01-19T05:11:04;-4.60;93.40
76996;DHT22;65929;49.062;10.338;2023-01-19T05:12:05;-4.60;93.30
76996;DHT22;65929;49.062;10.338;2023-01-19T05:13:06;-4.60;93.20
76996;DHT22;65929;49.062;10.338;2023-01-19T05:14:08;-4.60;93.10
76996;DHT22;65929;49.062;10.338;2023-01-19T05:15:09;-4.60;93.10
76996;DHT22;65929;49.062;10.338;2023-01-19T05:16:10;-4.60;93.00
76996;DHT22;65929;49.062;10.338;2023-01-19T05:17:13;-4.60;92.80
76996;DHT22;65929;49.062;10.338;2023-01-19T05:18:14;-4.70;92.80
76996;DHT22;65929;49.062;10.338;2023-01-19T05:19:15;-4.70;92.70
76996;DHT22;65929;49.062;10.338;2023-01-19T05:20:16;-4.80;92.70
76996;DHT22;65929;49.062;10.338;2023-01-19T05:21:17;-4.80;92.80
76996;DHT22;65929;49.062;10.338;2023-01-19T05:22:18;-4.80;92.80
76996;DHT22;65929;49.062;10.338;2023-01-19T05:23:19;-4.80;92.90
76996;DHT22;65929;49.062;10.338;2023-01-19T05:24:20;-4.80;93.00
76996;DHT22;65929;49.062;10.338;2023-01-19T05:25:21;-4.80;93.00
76996;DHT22;65929;49.062;10.338;2023-01-19T05:26:22;-4.80;93.00
76996;DHT22;65929;49.062;10.338;2023-01-19T05:27:23;-4.80;93.10
76996;DHT22;65929;49.062;10.338;2023-01-19T05:28:24;-4.80;93.20
76996;DHT22;65929;49.062;10.338;2023-01-19T05:29:26;-4.80;93.20
76996;DHT22;65929;49.062;10.338;2023-01-19T05:30:27;-4.80;93.10
76996;DHT22;65929;49.062;10.338;2023-01-19T05:31:28;-4.80;93.10
76996;DHT22;65929;49.062;10.338;2023-01-19T05:32:29;-4.80;93.10
76996;DHT22;65929;49.062;10.338;2023-01-19T05:33:32;-4.80;93.10
76996;DHT22;65929;49.062;10.338;2023-01-19T05:34:33;-4.80;93.20
76996;DHT22;65929;49.062;10.338;2023-01-19T05:35:34;-4.80;93.20
76996;DHT22;65929;49.062;10.338;2023-01-19T05:36:35;-4.80;93.20
76996;DHT22;65929;49.062;10.338;2023-01-19T05:37:36;-4.80;93.00
76996;DHT22;65929;49.062;10.338;2023-01-19T05:38:37;-4.80;93.00
76996;DHT22;65929;49.062;10.338;2023-01-19T05:39:38;-4.90;92.80
76996;DHT22;65929;49.062;10.338;2023-01-19T05:40:39;-4.90;92.70
76996;DHT22;65929;49.062;10.338;2023-01-19T05:41:40;-4.90;92.70
76996;DHT22;65929;49.062;10.338;2023-01-19T05:42:41;-5.00;92.60
76996;DHT22;65929;49.062;10.338;2023-01-19T05:43:42;-5.00;92.70
76996;DHT22;65929;49.062;10.338;2023-01-19T05:44:45;-5.00;92.80
76996;DHT22;65929;49.062;10.338;2023-01-19T05:45:45;-5.00;92.80
76996;DHT22;65929;49.062;10.338;2023-01-19T05:46:49;-4.90;93.00
76996;DHT22;65929;49.062;10.338;2023-01-19T05:47:50;-4.80;93.30
76996;DHT22;65929;49.062;10.338;2023-01-19T05:48:51;-4.80;93.40
76996;DHT22;65929;49.062;10.338;2023-01-19T05:49:52;-4.70;93.40
76996;DHT22;65929;49.062;10.338;2023-01-19T05:50:56;-4.70;93.50
76996;DHT22;65929;49.062;10.338;2023-01-19T05:51:57;-4.60;93.50
76996;DHT22;65929;49.062;10.338;2023-01-19T05:52:58;-4.60;93.50
76996;DHT22;65929;49.062;10.338;2023-01-19T05:53:59;-4.60;93.60
76996;DHT22;65929;49.062;10.338;2023-01-19T05:55:00;-4.60;93.60
76996;DHT22;65929;49.062;10.338;2023-01-19T05:56:02;-4.60;93.60
76996;DHT22;65929;49.062;10.338;2023-01-19T05:57:04;-4.50;93.60
76996;DHT22;65929;49.062;10.338;2023-01-19T05:58:05;-4.50;93.50
76996;DHT22;65929;49.062;10.338;2023-01-19T05:59:06;-4.40;93.50
76996;DHT22;65929;49.062;10.338;2023-01-19T06:00:10;-4.40;93.50
76996;DHT22;65929;49.062;10.338;2023-01-19T06:01:11;-4.40;93.50
76996;DHT22;65929;49.062;10.338;2023-01-19T06:02:12;-4.40;93.50
76996;DHT22;65929;49.062;10.338;2023-01-19T06:03:13;-4.30;93.50
76996;DHT22;65929;49.062;10.338;2023-01-19T06:04:14;-4.30;93.30
76996;DHT22;65929;49.062;10.338;2023-01-19T06:05:15;-4.20;93.20
76996;DHT22;65929;49.062;10.338;2023-01-19T06:06:16;-4.20;93.00
76996;DHT22;65929;49.062;10.338;2023-01-19T06:07:18;-4.20;92.80
76996;DHT22;65929;49.062;10.338;2023-01-19T06:08:19;-4.20;92.60
76996;DHT22;65929;49.062;10.338;2023-01-19T06:09:20;-4.20;92.50
76996;DHT22;65929;49.062;10.338;2023-01-19T06:10:21;-4.20;92.30
76996;DHT22;65929;49.062;10.338;2023-01-19T06:11:22;-4.20;92.30
76996;DHT22;65929;49.062;10.338;2023-01-19T06:12:23;-4.20;92.20
76996;DHT22;65929;49.062;10.338;2023-01-19T06:13:24;-4.20;92.20
76996;DHT22;65929;49.062;10.338;2023-01-19T06:14:25;-4.20;92.10
76996;DHT22;65929;49.062;10.338;2023-01-19T06:15:27;-4.20;92.20
76996;DHT22;65929;49.062;10.338;2023-01-19T06:16:28;-4.10;92.20
76996;DHT22;65929;49.062;10.338;2023-01-19T06:17:31;-4.10;92.10
76996;DHT22;65929;49.062;10.338;2023-01-19T06:18:32;-4.10;92.00
76996;DHT22;65929;49.062;10.338;2023-01-19T06:19:33;-4.10;91.90
76996;DHT22;65929;49.062;10.338;2023-01-19T06:20:35;-4.10;91.90
76996;DHT22;65929;49.062;10.338;2023-01-19T06:21:36;-4.20;91.90
76996;DHT22;65929;49.062;10.338;2023-01-19T06:22:37;-4.20;91.90
76996;DHT22;65929;49.062;10.338;2023-01-19T06:23:38;-4.20;91.90
76996;DHT22;65929;49.062;10.338;2023-01-19T06:24:39;-4.20;91.90
76996;DHT22;65929;49.062;10.338;2023-01-19T06:25:40;-4.10;91.90
76996;DHT22;65929;49.062;10.338;2023-01-19T06:26:41;-4.10;91.80
76996;DHT22;65929;49.062;10.338;2023-01-19T06:27:43;-4.10;91.80
76996;DHT22;65929;49.062;10.338;2023-01-19T06:28:45;-4.10;91.70
76996;DHT22;65929;49.062;10.338;2023-01-19T06:29:48;-4.20;91.60
76996;DHT22;65929;49.062;10.338;2023-01-19T06:30:51;-4.20;91.60
76996;DHT22;65929;49.062;10.338;2023-01-19T06:31:52;-4.20;91.60
76996;DHT22;65929;49.062;10.338;2023-01-19T06:32:53;-4.20;91.50
76996;DHT22;65929;49.062;10.338;2023-01-19T06:33:54;-4.20;91.50
76996;DHT22;65929;49.062;10.338;2023-01-19T06:34:55;-4.20;91.40
76996;DHT22;65929;49.062;10.338;2023-01-19T06:35:56;-4.20;91.40
76996;DHT22;65929;49.062;10.338;2023-01-19T06:36:57;-4.30;91.30
76996;DHT22;65929;49.062;10.338;2023-01-19T06:37:58;-4.30;91.40
76996;DHT22;65929;49.062;10.338;2023-01-19T06:38:59;-4.30;91.40
76996;DHT22;65929;49.062;10.338;2023-01-19T06:40:05;-4.30;91.40
76996;DHT22;65929;49.062;10.338;2023-01-19T06:41:07;-4.30;91.60
76996;DHT22;65929;49.062;10.338;2023-01-19T06:42:08;-4.30;91.60
76996;DHT22;65929;49.062;10.338;2023-01-19T06:43:09;-4.30;91.70
76996;DHT22;65929;49.062;10.338;2023-01-19T06:44:10;-4.30;91.60
76996;DHT22;65929;49.062;10.338;2023-01-19T06:45:11;-4.30;91.70